createdAt,value
2018-08-25T02:22:28.146Z,99.90
2018-08-25T02:24:56.290Z,99.90
2018-08-25T02:27:24.523Z,99.90
2018-08-25T02:29:52.664Z,99.90
2018-08-25T02:32:20.828Z,99.90
2018-08-25T02:34:48.982Z,99.90
2018-08-25T02:37:17.104Z,99.90
2018-08-25T02:39:45.300Z,99.90
2018-08-25T02:42:13.419Z,99.90
2018-08-25T02:44:41.576Z,99.90
2018-08-25T02:47:09.690Z,99.90
2018-08-25T02:49:37.835Z,99.90
2018-08-25T02:52:05.974Z,99.90
2018-08-25T02:57:08.659Z,99.90
2018-08-25T02:59:36.798Z,99.90
2018-08-25T03:02:04.970Z,99.90
2018-08-25T03:04:33.099Z,99.90
2018-08-25T03:07:01.226Z,99.90
2018-08-25T03:09:29.414Z,99.90
2018-08-25T03:11:57.537Z,99.90
2018-08-25T03:14:25.669Z,99.90
2018-08-25T03:16:53.795Z,99.90
2018-08-25T03:19:21.932Z,99.90
2018-08-25T03:21:50.058Z,99.90
2018-08-25T03:24:18.203Z,99.90
2018-08-25T03:26:46.335Z,99.90
2018-08-25T03:29:14.476Z,99.90
2018-08-25T03:31:42.598Z,99.90
2018-08-25T03:34:10.735Z,99.90
2018-08-25T03:36:38.876Z,99.90
2018-08-25T03:39:08.670Z,99.90
2018-08-25T03:41:36.786Z,99.90
2018-08-25T03:44:04.930Z,99.90
2018-08-25T03:46:33.102Z,99.90
2018-08-25T03:49:01.250Z,99.90
2018-08-25T03:51:29.379Z,99.90
2018-08-25T03:53:57.520Z,99.90
2018-08-25T03:56:25.664Z,99.90
2018-08-25T03:58:53.791Z,99.90
2018-08-25T04:01:21.989Z,99.90
2018-08-25T04:03:50.076Z,99.90
2018-08-25T04:06:18.223Z,99.90
2018-08-25T04:08:46.344Z,99.90
2018-08-25T04:11:14.540Z,99.90
2018-08-25T04:13:42.969Z,99.90
2018-08-25T04:16:11.102Z,99.90
2018-08-25T04:18:39.235Z,99.90
2018-08-25T04:21:07.374Z,99.90
2018-08-25T04:23:35.506Z,99.90
2018-08-25T04:26:03.663Z,99.90
2018-08-25T04:28:31.794Z,99.90
2018-08-25T04:30:59.940Z,99.90
2018-08-25T04:33:28.080Z,99.90
2018-08-25T04:35:56.235Z,99.90
2018-08-25T04:38:24.361Z,99.90
2018-08-25T04:40:52.487Z,99.90
2018-08-25T04:43:20.651Z,99.90
2018-08-25T04:45:48.780Z,99.90
2018-08-25T04:48:16.934Z,99.90
2018-08-25T04:50:45.074Z,99.90
2018-08-25T04:53:13.194Z,99.90
2018-08-25T04:55:41.355Z,99.90
2018-08-25T04:58:09.482Z,99.90
2018-08-25T05:00:37.612Z,99.90
2018-08-25T05:03:06.035Z,99.90
2018-08-25T05:05:34.176Z,99.90
2018-08-25T05:08:03.431Z,99.90
2018-08-25T05:10:31.551Z,99.90
2018-08-25T05:12:59.679Z,99.90
2018-08-25T05:15:27.828Z,99.90
2018-08-25T05:17:55.954Z,99.90
2018-08-25T05:20:24.094Z,99.90
2018-08-25T05:22:52.229Z,99.90
2018-08-25T05:25:20.387Z,99.90
2018-08-25T05:27:48.519Z,99.90
2018-08-25T05:30:16.643Z,99.90
2018-08-25T05:32:44.854Z,99.90
2018-08-25T05:35:12.993Z,99.50
2018-08-25T05:37:41.138Z,99.30
2018-08-25T05:40:09.279Z,99.90
2018-08-25T05:42:37.430Z,99.50
2018-08-25T05:45:05.562Z,99.50
2018-08-25T05:47:33.712Z,99.30
2018-08-25T05:50:01.841Z,99.90
2018-08-25T05:52:36.568Z,99.20
2018-08-25T05:55:04.706Z,99.60
2018-08-25T05:57:32.858Z,99.10
2018-08-25T06:00:00.984Z,99.90
2018-08-25T06:02:29.130Z,99.90
2018-08-25T06:04:57.250Z,99.90
2018-08-25T06:07:25.391Z,99.90
2018-08-25T06:09:53.527Z,99.90
2018-08-25T06:12:21.666Z,99.90
2018-08-25T06:14:49.780Z,99.90
2018-08-25T06:17:17.937Z,99.90
2018-08-25T06:19:46.403Z,99.90
2018-08-25T06:22:14.540Z,99.90
2018-08-25T06:24:42.676Z,99.90
2018-08-25T06:27:10.850Z,99.90
2018-08-25T06:29:39.069Z,99.90
2018-08-25T06:32:07.171Z,99.90
2018-08-25T06:34:35.299Z,99.90
2018-08-25T06:37:03.441Z,99.90
2018-08-25T06:39:31.560Z,99.90
2018-08-25T06:41:59.742Z,99.90
2018-08-25T06:44:27.867Z,99.90
2018-08-25T06:46:55.985Z,99.90
2018-08-25T06:49:25.234Z,99.90
2018-08-25T06:51:54.731Z,99.90
2018-08-25T06:54:22.871Z,99.90
2018-08-25T06:56:51.052Z,99.90
2018-08-25T06:59:19.164Z,99.90
2018-08-25T07:01:47.479Z,99.90
2018-08-25T07:04:15.628Z,99.90
2018-08-25T07:06:43.775Z,99.90
2018-08-25T07:09:12.803Z,99.90
2018-08-25T07:11:41.397Z,99.90
2018-08-25T07:14:09.994Z,99.90
2018-08-25T07:16:38.139Z,99.90
2018-08-25T07:19:06.342Z,99.90
2018-08-25T07:21:34.431Z,99.90
2018-08-25T07:24:02.661Z,99.90
2018-08-25T07:26:30.897Z,99.90
2018-08-25T07:28:59.040Z,99.90
2018-08-25T07:31:27.147Z,99.90
2018-08-25T07:33:55.300Z,99.90
2018-08-25T07:36:23.437Z,99.90
2018-08-25T07:38:51.584Z,99.90
2018-08-25T07:41:19.730Z,99.90
2018-08-25T07:43:47.878Z,99.90
2018-08-25T07:46:16.024Z,99.90
2018-08-25T07:48:44.267Z,99.90
2018-08-25T07:51:12.302Z,99.90
2018-08-25T07:53:40.462Z,99.90
2018-08-25T07:56:08.900Z,99.90
2018-08-25T07:58:37.091Z,99.90
2018-08-25T08:01:05.200Z,99.90
2018-08-25T08:03:33.352Z,99.90
2018-08-25T08:06:01.495Z,99.90
2018-08-25T08:08:29.632Z,99.90
2018-08-25T08:10:57.840Z,99.90
2018-08-25T08:13:26.038Z,99.90
2018-08-25T08:15:54.600Z,99.90
2018-08-25T08:18:22.746Z,99.90
2018-08-25T08:20:50.868Z,99.90
2018-08-25T08:23:19.041Z,99.90
2018-08-25T08:25:47.175Z,99.90
2018-08-25T08:28:15.321Z,99.90
2018-08-25T08:30:43.454Z,99.90
2018-08-25T08:33:11.679Z,99.90
2018-08-25T08:35:39.843Z,99.90
2018-08-25T08:38:08.011Z,99.90
2018-08-25T08:40:36.411Z,99.90
2018-08-25T08:43:04.990Z,99.90
2018-08-25T08:45:33.211Z,99.90
2018-08-25T08:48:01.278Z,99.90
2018-08-25T08:50:29.504Z,99.90
2018-08-25T08:52:57.591Z,99.90
2018-08-25T08:55:25.746Z,99.90
2018-08-25T08:57:53.887Z,99.90
2018-08-25T09:00:22.141Z,99.90
2018-08-25T09:02:50.271Z,99.90
2018-08-25T09:05:18.414Z,99.90
2018-08-25T09:07:46.553Z,99.90
2018-08-25T09:10:14.688Z,99.90
2018-08-25T09:12:42.836Z,99.90
2018-08-25T09:15:10.977Z,99.90
2018-08-25T09:17:39.100Z,99.90
2018-08-25T09:20:07.247Z,99.90
2018-08-25T09:22:35.380Z,99.90
2018-08-25T09:25:03.539Z,99.90
2018-08-25T09:27:31.734Z,99.90
2018-08-25T09:29:59.837Z,99.90
2018-08-25T09:32:27.977Z,99.90
2018-08-25T09:34:56.118Z,99.90
2018-08-25T09:37:24.269Z,99.90
2018-08-25T09:39:52.410Z,99.90
2018-08-25T09:42:20.559Z,99.90
2018-08-25T09:44:48.709Z,99.90
2018-08-25T09:47:16.989Z,98.10
2018-08-25T09:49:45.194Z,99.40
2018-08-25T09:52:13.333Z,98.30
2018-08-25T09:54:41.573Z,98.00
2018-08-25T09:57:09.696Z,98.80
2018-08-25T09:59:37.849Z,99.70
2018-08-25T10:02:07.730Z,97.60
2018-08-25T10:04:35.928Z,99.00
2018-08-25T10:07:04.475Z,99.90
2018-08-25T10:09:32.617Z,99.90
2018-08-25T10:12:00.738Z,99.90
2018-08-25T10:14:28.883Z,99.90
2018-08-25T10:16:57.024Z,99.90
2018-08-25T10:19:25.180Z,99.90
2018-08-25T10:21:53.480Z,99.90
2018-08-25T10:24:21.832Z,99.90
2018-08-25T10:26:49.987Z,99.90
2018-08-25T10:29:18.123Z,99.90
2018-08-25T10:31:46.286Z,99.90
2018-08-25T10:34:14.434Z,99.90
2018-08-25T10:36:42.619Z,99.90
2018-08-25T10:39:12.043Z,99.90
2018-08-25T10:41:40.307Z,99.90
2018-08-25T10:44:08.907Z,99.90
2018-08-25T10:46:38.132Z,99.50
2018-08-25T10:49:06.355Z,96.60
2018-08-25T10:51:34.496Z,95.90
2018-08-25T10:54:02.659Z,96.80
2018-08-25T10:56:30.775Z,96.40
2018-08-25T10:58:59.210Z,97.00
2018-08-25T11:01:27.354Z,98.80
2018-08-25T11:03:55.984Z,99.90
2018-08-25T11:06:24.128Z,99.90
2018-08-25T11:08:52.412Z,99.90
2018-08-25T11:11:20.467Z,99.90
2018-08-25T11:13:48.605Z,99.90
2018-08-25T11:16:16.800Z,99.90
2018-08-25T11:18:44.911Z,99.90
2018-08-25T11:21:13.073Z,99.90
2018-08-25T11:23:41.222Z,99.90
2018-08-25T11:26:09.376Z,99.90
2018-08-25T11:28:37.506Z,99.60
2018-08-25T11:31:05.683Z,97.70
2018-08-25T11:33:33.883Z,98.00
2018-08-25T11:36:02.029Z,94.00
2018-08-25T11:38:30.157Z,94.20
2018-08-25T11:40:58.298Z,93.30
2018-08-25T11:43:26.435Z,92.90
2018-08-25T11:45:54.553Z,93.30
2018-08-25T11:48:22.682Z,93.40
2018-08-25T11:50:50.807Z,93.20
2018-08-25T11:53:18.932Z,93.70
2018-08-25T11:55:47.070Z,93.10
2018-08-25T11:58:15.212Z,92.80
2018-08-25T12:00:43.350Z,92.10
2018-08-25T12:03:11.501Z,90.70
2018-08-25T12:05:39.622Z,91.30
2018-08-25T12:08:07.763Z,90.90
2018-08-25T12:10:35.908Z,91.30
2018-08-25T12:13:04.039Z,92.20
2018-08-25T12:15:32.161Z,91.80
2018-08-25T12:18:00.441Z,92.30
2018-08-25T12:20:28.592Z,92.70
2018-08-25T12:22:56.732Z,93.40
2018-08-25T12:25:24.881Z,93.70
2018-08-25T12:27:53.052Z,93.80
2018-08-25T12:30:21.404Z,94.70
2018-08-25T12:32:49.569Z,94.20
2018-08-25T12:35:17.691Z,94.40
2018-08-25T12:37:45.840Z,95.50
2018-08-25T12:40:14.124Z,94.80
2018-08-25T12:42:42.307Z,94.90
2018-08-25T12:45:11.270Z,93.80
2018-08-25T12:47:39.336Z,92.60
2018-08-25T12:50:07.456Z,92.50
2018-08-25T12:52:35.607Z,93.00
2018-08-25T12:55:03.735Z,93.60
2018-08-25T12:57:31.866Z,94.40
2018-08-25T13:00:00.201Z,94.50
2018-08-25T13:02:28.338Z,94.60
2018-08-25T13:04:56.474Z,94.70
2018-08-25T13:07:24.678Z,94.70
2018-08-25T13:09:52.931Z,93.60
2018-08-25T13:12:21.080Z,93.60
2018-08-25T13:14:49.263Z,93.40
2018-08-25T13:17:17.376Z,92.80
2018-08-25T13:19:45.512Z,91.30
2018-08-25T13:22:13.637Z,90.60
2018-08-25T13:24:41.764Z,90.40
2018-08-25T13:27:09.941Z,89.10
2018-08-25T13:29:38.081Z,90.60
2018-08-25T13:32:06.216Z,91.80
2018-08-25T13:34:34.356Z,90.20
2018-08-25T13:37:02.559Z,90.40
2018-08-25T13:39:30.721Z,88.50
2018-08-25T13:41:59.052Z,88.20
2018-08-25T13:44:27.196Z,85.40
2018-08-25T13:46:55.315Z,87.80
2018-08-25T13:49:23.451Z,86.00
2018-08-25T13:51:51.577Z,87.40
2018-08-25T13:54:19.812Z,88.60
2018-08-25T13:56:48.023Z,88.50
2018-08-25T13:59:16.209Z,89.10
2018-08-25T14:01:44.334Z,89.90
2018-08-25T14:04:12.646Z,90.30
2018-08-25T14:06:40.793Z,90.00
2018-08-25T14:09:09.163Z,90.80
2018-08-25T14:11:37.303Z,92.40
2018-08-25T14:14:05.609Z,93.90
2018-08-25T14:16:33.771Z,95.10
2018-08-25T14:19:01.940Z,96.10
2018-08-25T14:21:30.079Z,96.50
2018-08-25T14:23:58.219Z,96.70
2018-08-25T14:26:26.367Z,97.10
2018-08-25T14:28:54.588Z,97.10
2018-08-25T14:31:22.668Z,97.60
2018-08-25T14:33:51.047Z,97.80
2018-08-25T14:36:19.232Z,98.50
2018-08-25T14:38:47.355Z,96.20
2018-08-25T14:41:15.503Z,96.10
2018-08-25T14:43:44.065Z,94.70
2018-08-25T14:46:12.236Z,93.70
2018-08-25T14:48:40.417Z,93.50
2018-08-25T14:51:08.657Z,93.60
2018-08-25T14:53:36.802Z,92.80
2018-08-25T14:56:04.936Z,92.40
2018-08-25T14:58:33.392Z,91.50
2018-08-25T15:01:01.769Z,91.60
2018-08-25T15:03:29.995Z,91.80
2018-08-25T15:05:58.195Z,91.50
2018-08-25T15:08:26.333Z,92.00
2018-08-25T15:10:54.455Z,92.40
2018-08-25T15:13:22.602Z,93.10
2018-08-25T15:15:50.756Z,94.60
2018-08-25T15:18:18.888Z,96.20
2018-08-25T15:20:47.013Z,96.00
2018-08-25T15:23:15.136Z,96.80
2018-08-25T15:25:43.291Z,96.80
2018-08-25T15:28:11.581Z,96.80
2018-08-25T15:30:39.719Z,97.50
2018-08-25T15:33:07.889Z,97.70
2018-08-25T15:35:36.087Z,97.70
2018-08-25T15:38:04.431Z,97.70
2018-08-25T15:40:32.581Z,97.10
2018-08-25T15:43:00.699Z,96.10
2018-08-25T15:45:28.877Z,95.00
2018-08-25T15:47:57.113Z,94.70
2018-08-25T15:50:25.262Z,94.80
2018-08-25T15:52:53.384Z,94.60
2018-08-25T15:55:21.560Z,94.80
2018-08-25T15:57:49.945Z,94.80
2018-08-25T16:00:17.988Z,94.50
2018-08-25T16:02:46.121Z,94.40
2018-08-25T16:05:14.279Z,93.60
2018-08-25T16:07:42.395Z,93.30
2018-08-25T16:10:10.544Z,92.90
2018-08-25T16:12:38.680Z,93.00
2018-08-25T16:15:06.839Z,93.30
2018-08-25T16:17:34.995Z,93.40
2018-08-25T16:20:03.233Z,93.80
2018-08-25T16:22:31.294Z,94.00
2018-08-25T16:24:59.466Z,93.90
2018-08-25T16:27:27.808Z,93.90
2018-08-25T16:29:55.978Z,94.20
2018-08-25T16:32:24.124Z,94.50
2018-08-25T16:34:52.283Z,94.30
2018-08-25T16:37:20.412Z,94.70
2018-08-25T16:39:48.541Z,95.00
2018-08-25T16:42:16.907Z,95.80
2018-08-25T16:44:45.034Z,95.90
2018-08-25T16:47:13.182Z,96.40
2018-08-25T16:49:41.300Z,96.50
2018-08-25T16:52:09.556Z,96.80
2018-08-25T16:54:37.671Z,97.10
2018-08-25T16:57:05.821Z,97.00
2018-08-25T16:59:33.951Z,97.10
2018-08-25T17:02:02.165Z,97.30
2018-08-25T17:04:30.258Z,97.30
2018-08-25T17:06:58.422Z,97.00
2018-08-25T17:09:26.601Z,96.60
2018-08-25T17:11:54.831Z,96.70
2018-08-25T17:14:22.972Z,96.10
2018-08-25T17:16:51.116Z,95.90
2018-08-25T17:19:19.267Z,95.70
2018-08-25T17:21:47.402Z,95.90
2018-08-25T17:24:15.524Z,95.80
2018-08-25T17:26:43.968Z,95.90
2018-08-25T17:29:12.115Z,96.20
2018-08-25T17:31:40.334Z,96.60
2018-08-25T17:34:08.460Z,97.20
2018-08-25T17:36:36.591Z,97.40
2018-08-25T17:39:08.872Z,97.70
2018-08-25T17:41:37.032Z,98.00
2018-08-25T17:44:05.203Z,99.50
2018-08-25T17:46:33.348Z,99.90
2018-08-25T17:49:01.479Z,99.90
2018-08-25T17:51:29.612Z,99.90
2018-08-25T17:53:57.749Z,99.90
2018-08-25T17:56:25.912Z,99.90
2018-08-25T17:58:54.036Z,99.90
2018-08-25T18:01:22.163Z,99.90
2018-08-25T18:03:50.428Z,99.90
2018-08-25T18:06:18.507Z,99.90
2018-08-25T18:08:46.644Z,99.90
2018-08-25T18:11:14.873Z,99.90
2018-08-25T18:13:42.939Z,99.90
2018-08-25T18:16:11.083Z,99.90
2018-08-25T18:18:39.219Z,99.90
2018-08-25T18:21:07.372Z,99.90
2018-08-25T18:23:35.494Z,99.90
2018-08-25T18:26:03.629Z,99.90
2018-08-25T18:28:31.764Z,99.90
2018-08-25T18:31:00.004Z,99.90
2018-08-25T18:33:28.160Z,99.90
2018-08-25T18:35:56.299Z,99.90
2018-08-25T18:38:24.451Z,99.90
2018-08-25T18:40:53.014Z,99.90
2018-08-25T18:43:21.446Z,99.90
2018-08-25T18:45:49.580Z,99.90
2018-08-25T18:48:17.809Z,99.90
2018-08-25T18:50:46.255Z,99.90
2018-08-25T18:53:15.717Z,99.90
2018-08-25T18:55:44.605Z,99.90
2018-08-25T18:58:20.606Z,99.90
2018-08-25T19:00:49.552Z,99.90
2018-08-25T19:03:17.717Z,99.90
2018-08-25T19:05:46.044Z,99.90
2018-08-25T19:08:14.186Z,99.90
2018-08-25T19:10:42.371Z,99.90
2018-08-25T19:13:10.559Z,99.90
2018-08-25T19:15:39.587Z,99.90
2018-08-25T19:18:07.744Z,99.90
2018-08-25T19:20:35.880Z,99.90
2018-08-25T19:23:04.268Z,99.90
2018-08-25T19:25:32.433Z,99.90
2018-08-25T19:28:00.588Z,99.90
2018-08-25T19:30:28.716Z,99.90
2018-08-25T19:32:56.861Z,99.90
2018-08-25T19:35:26.069Z,99.90
2018-08-25T19:37:54.242Z,99.90
2018-08-25T19:40:22.551Z,99.90
2018-08-25T19:42:51.730Z,99.90
2018-08-25T19:45:19.875Z,99.90
2018-08-25T19:47:48.159Z,99.90
2018-08-25T19:50:16.333Z,99.90
2018-08-25T19:52:44.437Z,99.90
2018-08-25T19:55:12.567Z,99.90
2018-08-25T19:57:40.753Z,99.90
2018-08-25T20:00:08.873Z,99.90
2018-08-25T20:02:37.080Z,99.90
2018-08-25T20:05:05.275Z,99.90
2018-08-25T20:07:33.370Z,99.90
2018-08-25T20:10:01.767Z,99.90
2018-08-25T20:12:29.903Z,99.90
2018-08-25T20:14:58.027Z,99.90
2018-08-25T20:17:26.147Z,99.90
2018-08-25T20:19:54.274Z,99.90
2018-08-25T20:22:22.404Z,99.90
2018-08-25T20:24:50.544Z,99.90
2018-08-25T20:27:18.678Z,99.90
2018-08-25T20:29:46.810Z,99.90
2018-08-25T20:32:14.918Z,99.90
2018-08-25T20:34:43.067Z,99.90
2018-08-25T20:37:11.183Z,99.90
2018-08-25T20:39:39.306Z,99.90
2018-08-25T20:42:07.431Z,99.90
2018-08-25T20:44:35.568Z,99.90
2018-08-25T20:47:03.696Z,99.90
2018-08-25T20:49:31.869Z,99.90
2018-08-25T20:52:00.058Z,99.90
2018-08-25T20:54:28.195Z,99.90
2018-08-25T20:57:03.024Z,99.90
2018-08-25T20:59:31.227Z,99.90
2018-08-25T21:01:59.371Z,99.90
2018-08-25T21:04:27.496Z,99.90
2018-08-25T21:06:55.620Z,99.90
2018-08-25T21:09:23.740Z,99.90
2018-08-25T21:11:51.860Z,99.90
2018-08-25T21:14:19.986Z,99.90
2018-08-25T21:16:48.121Z,99.90
2018-08-25T21:19:16.255Z,99.90
2018-08-25T21:21:44.375Z,99.90
2018-08-25T21:24:12.503Z,99.90
2018-08-25T21:26:40.643Z,99.90
2018-08-25T21:29:08.780Z,99.90
2018-08-25T21:31:36.908Z,99.90
2018-08-25T21:34:05.032Z,99.90
2018-08-25T21:36:33.138Z,99.90
2018-08-25T21:39:01.276Z,99.90
2018-08-25T21:41:29.395Z,99.90
2018-08-25T21:43:57.547Z,99.90
2018-08-25T21:46:25.714Z,99.90
2018-08-25T21:48:53.858Z,99.90
2018-08-25T21:51:21.985Z,99.90
2018-08-25T21:53:50.114Z,99.90
2018-08-25T21:56:18.240Z,99.90
2018-08-25T21:58:46.372Z,99.90
2018-08-25T22:01:14.566Z,99.90
2018-08-25T22:03:42.631Z,99.90
2018-08-25T22:06:10.767Z,99.90
2018-08-25T22:08:38.899Z,99.90
2018-08-25T22:11:07.115Z,99.90
2018-08-25T22:13:35.175Z,99.90
2018-08-25T22:16:03.318Z,99.90
2018-08-25T22:18:31.439Z,99.90
2018-08-25T22:20:59.574Z,99.90
2018-08-25T22:23:27.697Z,99.90
2018-08-25T22:25:55.836Z,99.90
2018-08-25T22:28:23.967Z,99.90
2018-08-25T22:30:52.103Z,99.90
2018-08-25T22:33:20.229Z,99.90
2018-08-25T22:35:48.360Z,99.90
2018-08-25T22:38:16.475Z,99.90
2018-08-25T22:40:44.599Z,99.90
2018-08-25T22:43:12.723Z,99.90
2018-08-25T22:45:40.860Z,99.90
2018-08-25T22:48:08.984Z,99.90
2018-08-25T22:50:37.127Z,99.90
2018-08-25T22:53:05.266Z,99.90
2018-08-25T22:55:33.391Z,99.90
2018-08-25T22:58:01.520Z,99.90
2018-08-25T23:00:29.657Z,99.90
2018-08-25T23:02:57.764Z,99.90
2018-08-25T23:05:25.902Z,99.90
2018-08-25T23:07:54.015Z,99.90
2018-08-25T23:10:22.143Z,99.90
2018-08-25T23:12:50.261Z,99.90
2018-08-25T23:15:18.387Z,99.90
2018-08-25T23:17:46.556Z,99.90
2018-08-25T23:20:14.678Z,99.90
2018-08-25T23:22:42.798Z,99.90
2018-08-25T23:25:10.918Z,99.90
2018-08-25T23:27:39.054Z,99.90
2018-08-25T23:30:07.174Z,99.90
2018-08-25T23:32:35.289Z,99.90
2018-08-25T23:35:03.398Z,99.90
2018-08-25T23:37:31.531Z,99.90
2018-08-25T23:39:59.934Z,99.90
2018-08-25T23:42:28.073Z,99.90
2018-08-25T23:44:56.250Z,99.90
2018-08-25T23:47:24.449Z,99.90
2018-08-25T23:49:52.942Z,99.90
2018-08-25T23:52:21.075Z,99.90
2018-08-25T23:54:49.446Z,99.90
2018-08-25T23:57:17.563Z,99.90
2018-08-25T23:59:45.719Z,99.90
